createdAt,value
2023-04-03T00:01:05.821Z,8.52
2023-04-03T00:03:32.880Z,8.63
2023-04-03T00:05:59.880Z,10.48
2023-04-03T00:08:26.549Z,9.25
2023-04-03T00:10:53.326Z,9.27
2023-04-03T00:13:20.040Z,8.50
2023-04-03T00:15:46.742Z,9.18
2023-04-03T00:18:13.377Z,8.88
2023-04-03T00:20:40.217Z,8.57
2023-04-03T00:23:06.941Z,7.60
2023-04-03T00:25:33.958Z,9.30
2023-04-03T00:28:04.075Z,8.60
2023-04-03T00:30:30.806Z,8.77
2023-04-03T00:32:58.244Z,8.48
2023-04-03T00:35:25.211Z,8.48
2023-04-03T00:37:52.892Z,8.20
2023-04-03T00:40:19.902Z,8.13
2023-04-03T00:42:47.498Z,7.80
2023-04-03T00:45:23.535Z,8.45
2023-04-03T00:47:50.713Z,8.48
2023-04-03T00:50:17.459Z,7.55
2023-04-03T00:52:44.148Z,7.95
2023-04-03T00:55:10.946Z,7.63
2023-04-03T00:57:37.600Z,8.13
2023-04-03T01:00:08.080Z,8.38
2023-04-03T01:02:34.807Z,8.07
2023-04-03T01:05:01.437Z,8.07
2023-04-03T01:07:30.273Z,9.85
2023-04-03T01:09:59.361Z,8.35
2023-04-03T01:12:28.413Z,7.75
2023-04-03T01:15:00.439Z,8.13
2023-04-03T01:17:37.495Z,7.03
2023-04-03T01:20:44.034Z,7.55
2023-04-03T01:23:15.366Z,8.02
2023-04-03T01:25:45.393Z,7.97
2023-04-03T01:28:14.411Z,7.75
2023-04-03T01:30:46.346Z,8.20
2023-04-03T01:33:13.101Z,7.53
2023-04-03T01:35:39.775Z,8.45
2023-04-03T01:38:06.928Z,8.02
2023-04-03T01:40:33.800Z,8.15
2023-04-03T01:43:00.581Z,8.15
2023-04-03T01:45:27.654Z,8.13
2023-04-03T01:47:54.285Z,7.97
2023-04-03T01:50:21.101Z,7.60
2023-04-03T01:52:48.099Z,8.50
2023-04-03T01:55:14.967Z,7.85
2023-04-03T01:57:41.639Z,8.10
2023-04-03T02:00:08.822Z,8.15
2023-04-03T02:02:35.712Z,7.38
2023-04-03T02:05:02.503Z,7.28
2023-04-03T02:07:29.103Z,8.20
2023-04-03T02:09:56.328Z,7.10
2023-04-03T02:12:23.037Z,7.75
2023-04-03T02:14:49.672Z,7.35
2023-04-03T02:17:16.416Z,7.30
2023-04-03T02:19:43.183Z,8.45
2023-04-03T02:22:09.934Z,7.20
2023-04-03T02:24:36.642Z,6.60
2023-04-03T02:27:03.326Z,6.55
2023-04-03T02:29:29.969Z,6.22
2023-04-03T02:31:56.703Z,6.18
2023-04-03T02:34:23.354Z,7.07
2023-04-03T02:36:50.827Z,7.43
2023-04-03T02:39:17.585Z,6.78
2023-04-03T02:41:44.220Z,6.22
2023-04-03T02:44:12.428Z,6.78
2023-04-03T02:46:39.240Z,7.55
2023-04-03T02:49:06.666Z,6.18
2023-04-03T02:51:33.310Z,6.78
2023-04-03T02:53:59.937Z,5.85
2023-04-03T02:56:27.722Z,6.00
2023-04-03T02:58:54.419Z,6.50
2023-04-03T03:01:21.083Z,6.15
2023-04-03T03:03:47.715Z,5.35
2023-04-03T03:06:15.876Z,5.50
2023-04-03T03:08:42.562Z,6.00
2023-04-03T03:11:09.475Z,5.65
2023-04-03T03:13:36.557Z,5.40
2023-04-03T03:16:03.629Z,5.75
2023-04-03T03:18:30.627Z,4.85
2023-04-03T03:20:58.193Z,5.78
2023-04-03T03:23:25.427Z,5.07
2023-04-03T03:25:56.603Z,5.00
2023-04-03T03:28:23.410Z,4.60
2023-04-03T03:30:50.211Z,5.50
2023-04-03T03:33:18.118Z,4.90
2023-04-03T03:35:45.042Z,5.22
2023-04-03T03:38:11.819Z,5.00
2023-04-03T03:40:38.452Z,4.95
2023-04-03T03:43:05.106Z,4.80
2023-04-03T03:45:32.152Z,4.65
2023-04-03T03:47:58.869Z,4.40
2023-04-03T03:50:25.554Z,5.28
2023-04-03T03:52:52.351Z,4.65
2023-04-03T03:55:19.253Z,4.68
2023-04-03T03:57:45.992Z,4.90
2023-04-03T04:00:12.998Z,4.75
2023-04-03T04:02:39.818Z,4.43
2023-04-03T04:05:07.111Z,4.68
2023-04-03T04:07:33.768Z,5.70
2023-04-03T04:10:00.393Z,4.78
2023-04-03T04:12:27.099Z,4.45
2023-04-03T04:14:53.750Z,5.20
2023-04-03T04:17:20.733Z,5.45
2023-04-03T04:19:50.686Z,5.80
2023-04-03T04:22:20.537Z,5.47
2023-04-03T04:24:47.246Z,5.28
2023-04-03T04:27:13.801Z,4.38
2023-04-03T04:29:40.525Z,5.55
2023-04-03T04:32:07.115Z,4.50
2023-04-03T04:34:33.730Z,5.00
2023-04-03T04:37:00.465Z,4.57
2023-04-03T04:39:27.166Z,4.10
2023-04-03T04:41:53.898Z,5.90
2023-04-03T04:44:21.423Z,5.25
2023-04-03T04:46:48.075Z,5.10
2023-04-03T04:49:14.840Z,4.97
2023-04-03T04:51:51.626Z,4.70
2023-04-03T04:54:19.175Z,4.43
2023-04-03T04:56:46.055Z,4.90
2023-04-03T04:59:12.781Z,5.05
2023-04-03T05:01:39.437Z,5.72
2023-04-03T05:04:06.077Z,5.18
2023-04-03T05:06:32.868Z,4.45
2023-04-03T05:09:00.253Z,5.85
2023-04-03T05:11:27.144Z,6.00
2023-04-03T05:13:54.994Z,6.30
2023-04-03T05:16:21.701Z,6.32
2023-04-03T05:18:48.432Z,4.93
2023-04-03T05:21:15.163Z,5.00
2023-04-03T05:23:41.943Z,5.07
2023-04-03T05:26:08.857Z,4.50
2023-04-03T05:28:35.816Z,5.43
2023-04-03T05:31:02.703Z,6.40
2023-04-03T05:33:29.602Z,4.80
2023-04-03T05:35:56.529Z,4.80
2023-04-03T05:38:23.356Z,4.78
2023-04-03T05:40:50.287Z,4.57
2023-04-03T05:43:17.010Z,4.82
2023-04-03T05:45:45.553Z,6.88
2023-04-03T05:48:13.876Z,5.28
2023-04-03T05:50:42.600Z,4.97
2023-04-03T05:53:15.411Z,5.28
2023-04-03T05:55:42.148Z,5.35
2023-04-03T05:58:11.509Z,4.43
2023-04-03T06:00:38.521Z,5.03
2023-04-03T06:03:05.311Z,5.60
2023-04-03T06:05:32.120Z,5.20
2023-04-03T06:07:58.807Z,6.40
2023-04-03T06:10:25.517Z,4.53
2023-04-03T06:12:52.596Z,4.82
2023-04-03T06:15:19.348Z,5.22
2023-04-03T06:17:46.577Z,5.07
2023-04-03T06:20:13.598Z,5.45
2023-04-03T06:22:40.426Z,5.15
2023-04-03T06:25:07.560Z,5.22
2023-04-03T06:27:34.211Z,5.80
2023-04-03T06:30:00.946Z,4.55
2023-04-03T06:32:27.749Z,4.57
2023-04-03T06:34:54.559Z,5.97
2023-04-03T06:37:22.657Z,5.43
2023-04-03T06:39:49.421Z,5.25
2023-04-03T06:42:16.183Z,5.32
2023-04-03T06:44:43.177Z,5.13
2023-04-03T06:47:12.577Z,6.10
2023-04-03T06:49:39.252Z,5.18
2023-04-03T06:52:06.425Z,5.40
2023-04-03T06:54:33.337Z,5.82
2023-04-03T06:57:00.100Z,4.65
2023-04-03T06:59:26.923Z,6.20
2023-04-03T07:01:53.577Z,5.60
2023-04-03T07:04:21.270Z,6.13
2023-04-03T07:06:48.313Z,4.75
2023-04-03T07:09:15.924Z,5.03
2023-04-03T07:11:42.570Z,5.88
2023-04-03T07:14:09.323Z,5.63
2023-04-03T07:16:36.270Z,4.40
2023-04-03T07:19:04.024Z,4.13
2023-04-03T07:21:33.855Z,5.90
2023-04-03T07:24:00.474Z,5.30
2023-04-03T07:26:27.215Z,4.53
2023-04-03T07:28:54.036Z,5.35
2023-04-03T07:31:20.733Z,5.55
2023-04-03T07:33:47.589Z,6.78
2023-04-03T07:36:19.100Z,6.20
2023-04-03T07:38:46.407Z,5.78
2023-04-03T07:41:16.247Z,5.18
2023-04-03T07:43:43.286Z,5.45
2023-04-03T07:46:10.229Z,5.47
2023-04-03T07:48:36.984Z,5.40
2023-04-03T07:51:04.843Z,6.50
2023-04-03T07:53:31.763Z,6.60
2023-04-03T07:55:59.140Z,5.30
2023-04-03T07:58:26.868Z,6.90
2023-04-03T08:00:53.760Z,5.10
2023-04-03T08:03:21.182Z,6.32
2023-04-03T08:05:48.647Z,6.13
2023-04-03T08:08:18.625Z,6.82
2023-04-03T08:10:53.062Z,6.25
2023-04-03T08:13:20.232Z,6.53
2023-04-03T08:15:47.455Z,7.43
2023-04-03T08:18:15.658Z,7.03
2023-04-03T08:20:42.637Z,7.68
2023-04-03T08:23:09.422Z,7.53
2023-04-03T08:25:40.390Z,6.82
2023-04-03T08:28:07.591Z,7.65
2023-04-03T08:30:36.957Z,7.88
2023-04-03T08:33:04.269Z,8.13
2023-04-03T08:35:41.658Z,7.82
2023-04-03T08:38:09.324Z,8.80
2023-04-03T08:40:35.997Z,7.43
2023-04-03T08:45:47.934Z,7.57
2023-04-03T08:48:22.544Z,8.18
2023-04-03T08:50:53.306Z,6.93
2023-04-03T08:53:22.837Z,7.18
2023-04-03T08:55:50.956Z,7.60
2023-04-03T08:58:20.797Z,7.35
2023-04-03T09:01:11.599Z,8.23
2023-04-03T09:03:39.819Z,7.20
2023-04-03T09:06:08.377Z,9.27
2023-04-03T09:08:47.851Z,7.43
2023-04-03T09:14:50.728Z,7.00
2023-04-03T09:17:41.623Z,6.50
2023-04-03T09:22:52.133Z,7.28
2023-04-03T09:25:35.556Z,6.80
2023-04-03T09:28:03.665Z,6.72
2023-04-03T09:30:30.341Z,7.18
2023-04-03T09:32:57.835Z,6.55
2023-04-03T09:35:32.837Z,6.55
2023-04-03T09:41:13.213Z,7.00
2023-04-03T09:43:40.029Z,6.93
2023-04-03T09:46:31.247Z,7.28
2023-04-03T09:49:07.975Z,6.32
2023-04-03T09:51:35.395Z,6.10
2023-04-03T09:54:02.037Z,7.18
2023-04-03T09:56:29.538Z,6.22
2023-04-03T09:59:10.875Z,6.03
2023-04-03T10:01:39.259Z,6.28
2023-04-03T10:04:22.995Z,5.97
2023-04-03T10:06:52.025Z,6.93
2023-04-03T10:09:34.905Z,6.45
2023-04-03T10:15:00.368Z,5.15
2023-04-03T10:17:35.699Z,6.78
2023-04-03T10:20:09.585Z,6.00
2023-04-03T10:22:58.848Z,6.40
2023-04-03T10:25:48.622Z,6.45
2023-04-03T10:28:36.945Z,6.68
2023-04-03T10:31:25.559Z,6.85
2023-04-03T10:34:20.126Z,7.45
2023-04-03T10:36:58.186Z,8.00
2023-04-03T10:42:24.003Z,7.32
2023-04-03T10:45:30.670Z,5.55
2023-04-03T10:48:10.925Z,6.20
2023-04-03T10:51:06.007Z,6.10
2023-04-03T10:53:56.120Z,5.50
2023-04-03T10:56:34.735Z,5.65
2023-04-03T10:59:22.619Z,7.07
2023-04-03T11:01:52.902Z,5.65
2023-04-03T11:04:20.672Z,6.13
2023-04-03T11:06:51.896Z,6.75
2023-04-03T11:09:29.572Z,9.20
2023-04-03T11:12:02.762Z,6.55
2023-04-03T11:14:32.302Z,6.50
2023-04-03T11:17:23.122Z,6.68
2023-04-03T11:20:31.510Z,6.78
2023-04-03T11:23:02.823Z,7.07
2023-04-03T11:25:30.359Z,7.25
2023-04-03T11:27:58.739Z,5.50
2023-04-03T11:30:49.212Z,5.28
2023-04-03T11:33:23.916Z,4.88
2023-04-03T11:35:52.994Z,5.10
2023-04-03T11:38:27.552Z,5.10
2023-04-03T11:40:55.214Z,4.80
2023-04-03T11:43:26.784Z,5.10
2023-04-03T11:45:58.149Z,3.93
2023-04-03T11:51:21.509Z,3.97
2023-04-03T11:53:48.416Z,4.72
2023-04-03T11:56:31.560Z,4.45
2023-04-03T11:59:16.339Z,3.90
2023-04-03T12:01:49.702Z,2.88
2023-04-03T12:04:17.654Z,2.80
2023-04-03T12:06:51.693Z,5.03
2023-04-03T12:09:36.169Z,3.10
2023-04-03T12:12:31.539Z,3.47
2023-04-03T12:15:19.023Z,3.85
2023-04-03T12:17:45.747Z,4.55
2023-04-03T12:20:52.991Z,3.22
2023-04-03T12:23:37.261Z,3.13
2023-04-03T12:26:22.724Z,3.80
2023-04-03T12:28:49.725Z,4.50
2023-04-03T12:31:17.819Z,3.30
2023-04-03T12:34:09.079Z,3.20
2023-04-03T12:36:43.101Z,3.80
2023-04-03T12:39:49.635Z,3.05
2023-04-03T12:42:24.499Z,3.35
2023-04-03T12:44:57.533Z,2.67
2023-04-03T12:47:28.423Z,3.75
2023-04-03T12:49:56.097Z,2.40
2023-04-03T12:52:43.000Z,2.80
2023-04-03T12:55:16.264Z,2.72
2023-04-03T12:57:42.984Z,2.90
2023-04-03T13:00:30.973Z,2.17
2023-04-03T13:02:57.915Z,3.03
2023-04-03T13:05:24.656Z,3.05
2023-04-03T13:07:57.982Z,7.28
2023-04-03T13:10:24.750Z,3.30
2023-04-03T13:12:54.598Z,2.97
2023-04-03T13:15:25.804Z,3.03
2023-04-03T13:17:53.755Z,2.78
2023-04-03T13:20:26.730Z,3.15
2023-04-03T13:23:10.240Z,7.30
2023-04-03T13:25:38.872Z,3.63
2023-04-03T13:28:13.195Z,4.38
2023-04-03T13:30:41.969Z,3.80
2023-04-03T13:33:25.752Z,5.20
2023-04-03T13:35:58.634Z,2.83
2023-04-03T13:38:27.612Z,2.10
2023-04-03T13:40:57.072Z,2.65
2023-04-03T13:43:26.861Z,2.53
2023-04-03T13:48:53.675Z,4.80
2023-04-03T13:51:26.845Z,10.98
2023-04-03T13:53:58.643Z,3.40
2023-04-03T13:59:24.586Z,2.55
2023-04-03T14:01:56.817Z,2.72
2023-04-03T14:04:26.793Z,2.25
2023-04-03T14:06:53.724Z,3.35
2023-04-03T14:09:20.704Z,2.95
2023-04-03T14:11:48.264Z,3.08
2023-04-03T14:14:18.522Z,3.03
2023-04-03T14:16:51.402Z,9.75
2023-04-03T14:19:21.234Z,3.28
2023-04-03T14:21:47.980Z,3.10
2023-04-03T14:24:14.696Z,3.20
2023-04-03T14:26:41.966Z,3.63
2023-04-03T14:29:11.394Z,3.85
2023-04-03T14:31:38.218Z,2.97
2023-04-03T14:34:04.823Z,3.50
2023-04-03T14:36:32.027Z,3.28
2023-04-03T14:38:58.956Z,2.28
2023-04-03T14:41:26.915Z,3.00
2023-04-03T14:43:53.625Z,2.72
2023-04-03T14:46:28.348Z,2.50
2023-04-03T14:48:59.730Z,3.55
2023-04-03T14:51:27.041Z,2.75
2023-04-03T14:53:53.686Z,3.42
2023-04-03T14:56:23.124Z,2.83
2023-04-03T14:58:51.534Z,2.70
2023-04-03T15:01:18.755Z,3.33
2023-04-03T15:03:45.790Z,3.00
2023-04-03T15:06:13.844Z,2.50
2023-04-03T15:08:42.036Z,2.58
2023-04-03T15:11:09.862Z,3.38
2023-04-03T15:13:36.707Z,2.55
2023-04-03T15:16:04.511Z,3.83
2023-04-03T15:18:34.016Z,3.13
2023-04-03T15:21:00.629Z,2.55
2023-04-03T15:23:29.146Z,2.90
2023-04-03T15:25:55.821Z,2.80
2023-04-03T15:28:33.126Z,3.17
2023-04-03T15:30:59.782Z,3.38
2023-04-03T15:33:26.721Z,3.30
2023-04-03T15:35:55.836Z,3.40
2023-04-03T15:38:23.151Z,4.13
2023-04-03T15:40:50.039Z,3.47
2023-04-03T15:43:16.898Z,3.10
2023-04-03T15:45:43.625Z,3.20
2023-04-03T15:48:10.916Z,4.05
2023-04-03T15:50:37.844Z,4.07
2023-04-03T15:53:04.533Z,3.45
2023-04-03T15:55:32.576Z,3.20
2023-04-03T15:57:59.445Z,3.60
2023-04-03T16:00:26.494Z,2.80
2023-04-03T16:02:56.420Z,4.80
2023-04-03T16:05:23.103Z,5.07
2023-04-03T16:07:49.764Z,4.65
2023-04-03T16:10:17.566Z,2.78
2023-04-03T16:12:44.334Z,2.90
2023-04-03T16:15:12.211Z,4.18
2023-04-03T16:17:38.970Z,3.38
2023-04-03T16:20:06.679Z,3.72
2023-04-03T16:22:33.398Z,3.85
2023-04-03T16:25:00.275Z,3.30
2023-04-03T16:27:28.508Z,4.05
2023-04-03T16:29:56.006Z,3.58
2023-04-03T16:32:23.226Z,3.10
2023-04-03T16:34:49.907Z,3.50
2023-04-03T16:37:17.190Z,3.08
2023-04-03T16:39:44.112Z,3.25
2023-04-03T16:42:10.766Z,3.53
2023-04-03T16:44:38.034Z,2.45
2023-04-03T16:47:04.700Z,2.80
2023-04-03T16:49:33.685Z,2.70
2023-04-03T16:52:01.642Z,2.50
2023-04-03T16:54:28.392Z,2.58
2023-04-03T16:56:55.338Z,2.75
2023-04-03T16:59:22.022Z,2.55
2023-04-03T17:01:48.818Z,2.80
2023-04-03T17:04:15.671Z,3.17
2023-04-03T17:06:42.329Z,2.40
2023-04-03T17:09:10.243Z,2.83
2023-04-03T17:11:37.358Z,3.05
2023-04-03T17:14:04.122Z,2.90
2023-04-03T17:16:31.140Z,3.17
2023-04-03T17:18:57.986Z,2.90
2023-04-03T17:21:24.816Z,3.63
2023-04-03T17:23:53.513Z,3.30
2023-04-03T17:26:21.878Z,3.85
2023-04-03T17:28:48.874Z,3.67
2023-04-03T17:31:15.519Z,3.58
2023-04-03T17:33:42.271Z,3.58
2023-04-03T17:36:09.032Z,3.72
2023-04-03T17:38:35.804Z,4.38
2023-04-03T17:41:04.011Z,4.43
2023-04-03T17:43:31.041Z,3.28
2023-04-03T17:46:05.006Z,3.88
2023-04-03T17:48:32.513Z,3.78
2023-04-03T17:50:59.210Z,5.65
2023-04-03T17:53:27.580Z,3.78
2023-04-03T17:55:54.307Z,10.70
2023-04-03T17:58:21.088Z,6.85
2023-04-03T18:00:47.908Z,4.75
2023-04-03T18:03:14.689Z,4.40
2023-04-03T18:05:41.474Z,3.85
2023-04-03T18:08:08.181Z,4.38
2023-04-03T18:10:36.713Z,4.65
2023-04-03T18:13:06.742Z,4.70
2023-04-03T18:15:33.331Z,4.07
2023-04-03T18:18:00.230Z,3.13
2023-04-03T18:20:26.910Z,3.55
2023-04-03T18:22:53.561Z,3.15
2023-04-03T18:25:21.160Z,2.65
2023-04-03T18:27:48.168Z,4.10
2023-04-03T18:30:15.808Z,7.15
2023-04-03T18:32:42.962Z,5.93
2023-04-03T18:35:09.924Z,4.32
2023-04-03T18:37:36.694Z,3.40
2023-04-03T18:40:03.549Z,4.43
2023-04-03T18:42:30.305Z,4.60
2023-04-03T18:44:58.632Z,4.43
2023-04-03T18:47:25.311Z,3.60
2023-04-03T18:49:51.964Z,3.80
2023-04-03T18:52:18.872Z,3.65
2023-04-03T18:54:45.559Z,3.83
2023-04-03T18:57:12.630Z,3.75
2023-04-03T18:59:39.289Z,3.72
2023-04-03T19:02:06.787Z,2.97
2023-04-03T19:04:33.425Z,3.75
2023-04-03T19:07:03.769Z,4.50
2023-04-03T19:09:30.534Z,5.38
2023-04-03T19:11:57.700Z,4.22
2023-04-03T19:14:24.426Z,4.53
2023-04-03T19:16:51.578Z,4.35
2023-04-03T19:19:18.388Z,4.10
2023-04-03T19:21:45.150Z,3.67
2023-04-03T19:24:12.353Z,4.95
2023-04-03T19:26:39.755Z,3.35
2023-04-03T19:29:06.656Z,5.45
2023-04-03T19:31:33.962Z,4.28
2023-04-03T19:34:01.155Z,4.07
2023-04-03T19:36:28.085Z,3.70
2023-04-03T19:38:54.870Z,3.50
2023-04-03T19:41:23.057Z,4.30
2023-04-03T19:43:51.603Z,3.38
2023-04-03T19:46:19.537Z,3.83
2023-04-03T19:48:47.389Z,4.18
2023-04-03T19:51:14.410Z,4.00
2023-04-03T19:53:41.171Z,4.25
2023-04-03T19:56:07.860Z,4.30
2023-04-03T19:58:34.823Z,4.45
2023-04-03T20:01:01.565Z,3.80
2023-04-03T20:03:28.435Z,3.70
2023-04-03T20:05:55.294Z,4.72
2023-04-03T20:08:22.219Z,3.65
2023-04-03T20:10:49.004Z,4.60
2023-04-03T20:13:15.755Z,4.03
2023-04-03T20:15:44.437Z,3.55
2023-04-03T20:18:15.493Z,4.60
2023-04-03T20:20:42.521Z,5.20
2023-04-03T20:23:11.176Z,5.50
2023-04-03T20:28:13.143Z,8.32
2023-04-03T20:30:40.630Z,4.88
2023-04-03T20:33:07.645Z,4.68
2023-04-03T20:35:34.660Z,6.63
2023-04-03T20:38:01.353Z,5.90
2023-04-03T20:40:28.008Z,5.80
2023-04-03T20:42:55.154Z,4.50
2023-04-03T20:45:21.998Z,4.47
2023-04-03T20:47:49.378Z,4.50
2023-04-03T20:50:16.200Z,3.50
2023-04-03T20:52:43.742Z,4.70
2023-04-03T20:55:10.951Z,4.28
2023-04-03T20:57:38.082Z,4.38
2023-04-03T21:00:05.546Z,3.70
2023-04-03T21:02:33.834Z,4.07
2023-04-03T21:05:00.632Z,4.10
2023-04-03T21:08:07.139Z,4.75
2023-04-03T21:11:13.879Z,4.13
2023-04-03T21:14:20.741Z,4.13
2023-04-03T21:16:52.647Z,4.10
2023-04-03T21:19:20.647Z,5.03
2023-04-03T21:21:47.397Z,4.97
2023-04-03T21:24:16.134Z,4.10
2023-04-03T21:26:43.932Z,4.60
2023-04-03T21:29:11.161Z,4.20
2023-04-03T21:31:59.190Z,3.83
2023-04-03T21:34:28.244Z,4.35
2023-04-03T21:36:55.659Z,3.47
2023-04-03T21:39:23.018Z,3.92
2023-04-03T21:41:51.347Z,3.22
2023-04-03T21:44:19.673Z,3.88
2023-04-03T21:46:47.693Z,3.80
2023-04-03T21:49:14.676Z,3.08
2023-04-03T21:51:42.499Z,4.20
2023-04-03T21:54:09.242Z,4.45
2023-04-03T21:56:36.378Z,4.15
2023-04-03T21:59:03.376Z,5.05
2023-04-03T22:01:30.375Z,4.38
2023-04-03T22:03:58.957Z,3.72
2023-04-03T22:06:26.135Z,3.67
2023-04-03T22:08:52.887Z,3.97
2023-04-03T22:11:22.896Z,3.97
2023-04-03T22:13:51.772Z,3.88
2023-04-03T22:16:18.451Z,4.25
2023-04-03T22:18:45.513Z,4.28
2023-04-03T22:21:12.279Z,3.50
2023-04-03T22:23:39.550Z,4.18
2023-04-03T22:26:08.723Z,3.75
2023-04-03T22:28:37.773Z,4.00
2023-04-03T22:31:07.203Z,3.67
2023-04-03T22:33:36.488Z,4.07
2023-04-03T22:36:04.259Z,4.30
2023-04-03T22:38:31.024Z,4.32
2023-04-03T22:41:02.182Z,4.20
2023-04-03T22:43:29.835Z,4.07
2023-04-03T22:45:57.035Z,3.47
2023-04-03T22:48:24.277Z,4.25
2023-04-03T22:50:52.518Z,3.72
2023-04-03T22:53:19.238Z,3.70
2023-04-03T22:56:01.341Z,4.07
2023-04-03T22:58:28.790Z,4.18
2023-04-03T23:00:56.751Z,3.85
2023-04-03T23:03:24.242Z,3.85
2023-04-03T23:05:52.289Z,3.97
2023-04-03T23:08:19.326Z,4.30
2023-04-03T23:10:46.250Z,4.18
2023-04-03T23:13:12.977Z,3.95
2023-04-03T23:15:39.618Z,4.30
2023-04-03T23:18:06.360Z,3.67
2023-04-03T23:20:33.013Z,3.58
2023-04-03T23:22:59.661Z,4.43
2023-04-03T23:25:26.504Z,3.28
2023-04-03T23:27:53.619Z,3.92
2023-04-03T23:30:21.024Z,3.22
2023-04-03T23:32:48.766Z,2.90
2023-04-03T23:35:15.478Z,3.25
2023-04-03T23:37:42.640Z,3.35
2023-04-03T23:40:10.118Z,3.95
2023-04-03T23:42:39.477Z,3.83
2023-04-03T23:45:06.894Z,3.17
2023-04-03T23:47:33.739Z,3.00
2023-04-03T23:50:00.371Z,3.10
2023-04-03T23:52:27.278Z,3.10
2023-04-03T23:54:54.062Z,2.92
2023-04-03T23:57:20.662Z,3.40
2023-04-03T23:59:47.306Z,3.03
